Terminal Aerodrome Forecast
Issued by NWS

Current Version | Previous Version | Text Only | Print | Product List | Glossary On
Versions: 1 2 3 4 5 6 7 8 9 10 11 12 13 14
295
FTUS46 KMTR 071142
TAFOAK
TAF
KOAK 071142Z 0712/0818 VRB03KT P6SM FEW200
     FM071300 11003KT 6SM HZ SKC WS020/04030KT
     FM071700 06004G15KT P6SM SKC WS020/06030KT
     FM072100 07007G15KT P6SM SKC
     FM080000 05004KT P6SM SKC=

USA.gov is the U.S. government's official web portal to all federal, state and local government web resources and services.